Time;durP1;ratioP1;P1;durP2;ratioP2;P2;SDS_P1;SDS_P2;PMS_P1;PMS_P2;Temp;Humidity;BMP_temperature;BMP_pressure;BME280_temperature;BME280_humidity;BME280_pressure;Samples;Min_cycle;Max_cycle;Signal;HPM_P1;HPM_P2
2023/06/18 00:00:00;;;;;;;11.45;10.05;;;16.00;91.60;;;;;;6202217;28;20056;-82
2023/06/18 00:03:03;;;;;;;10.68;9.68;;;15.90;91.80;;;;;;6203029;28;20061;-83
2023/06/18 00:06:05;;;;;;;10.70;9.77;;;15.70;91.90;;;;;;6202473;28;20050;-82
2023/06/18 00:09:07;;;;;;;18.20;12.05;;;15.70;92.10;;;;;;6201544;28;20046;-81
2023/06/18 00:12:10;;;;;;;11.35;9.98;;;15.50;92.20;;;;;;6203449;28;20254;-83
2023/06/18 00:15:12;;;;;;;12.20;9.60;;;15.40;92.40;;;;;;6201665;28;20060;-83
2023/06/18 00:18:15;;;;;;;11.48;9.98;;;15.50;92.70;;;;;;6201997;28;20046;-82
2023/06/18 00:21:17;;;;;;;11.80;10.60;;;15.50;92.80;;;;;;6200773;28;20081;-83
2023/06/18 00:24:18;;;;;;;11.32;10.23;;;15.60;92.70;;;;;;6202384;28;20069;-83
2023/06/18 00:27:20;;;;;;;11.95;10.75;;;15.60;92.60;;;;;;6202492;28;20053;-83
2023/06/18 00:30:22;;;;;;;11.25;10.15;;;15.60;92.80;;;;;;6207595;28;20057;-81
2023/06/18 00:33:25;;;;;;;11.68;10.55;;;15.60;92.90;;;;;;6209231;28;20058;-82
2023/06/18 00:36:29;;;;;;;10.45;9.35;;;15.60;92.90;;;;;;6209241;28;20057;-80
2023/06/18 00:39:30;;;;;;;11.15;10.15;;;15.50;92.80;;;;;;6207381;28;20042;-80
2023/06/18 00:42:32;;;;;;;11.30;10.20;;;15.40;92.90;;;;;;6207078;28;20054;-82
2023/06/18 00:45:34;;;;;;;11.35;10.23;;;15.40;92.90;;;;;;6208006;28;20066;-82
2023/06/18 00:48:37;;;;;;;11.35;10.15;;;15.30;93.00;;;;;;6207372;28;20042;-81
2023/06/18 00:51:39;;;;;;;23.52;10.07;;;15.10;93.20;;;;;;6203800;28;20051;-81
2023/06/18 00:54:41;;;;;;;12.45;11.02;;;15.00;93.40;;;;;;6203563;28;20086;-81
2023/06/18 00:57:49;;;;;;;12.88;10.50;;;15.10;93.70;;;;;;6205297;28;20049;-79
2023/06/18 01:00:51;;;;;;;13.32;10.57;;;15.20;93.60;;;;;;6206243;28;20054;-81
2023/06/18 01:03:56;;;;;;;11.38;10.18;;;15.20;93.50;;;;;;6205722;28;20077;-82
2023/06/18 01:07:01;;;;;;;11.50;10.30;;;15.20;93.70;;;;;;6206630;28;20054;-82
2023/06/18 01:10:03;;;;;;;11.85;10.73;;;15.20;93.50;;;;;;6205796;28;20058;-80
2023/06/18 01:13:07;;;;;;;12.55;11.10;;;15.10;93.50;;;;;;6205880;28;20414;-80
2023/06/18 01:16:09;;;;;;;12.52;10.38;;;15.10;93.60;;;;;;6206122;28;20082;-80
2023/06/18 01:19:24;;;;;;;11.45;10.30;;;14.90;93.70;;;;;;6206140;28;20050;-80
2023/06/18 01:22:34;;;;;;;11.23;10.02;;;14.80;93.90;;;;;;6207029;28;20065;-82
2023/06/18 01:25:37;;;;;;;10.80;9.77;;;14.60;93.90;;;;;;6206664;28;20038;-82
2023/06/18 01:28:40;;;;;;;13.35;11.95;;;14.40;94.30;;;;;;6206497;28;20098;-80
2023/06/18 01:31:44;;;;;;;12.10;10.85;;;14.40;94.50;;;;;;6204704;28;20096;-79
2023/06/18 01:34:47;;;;;;;11.93;10.80;;;14.40;94.80;;;;;;6203994;28;20134;-79
2023/06/18 01:38:17;;;;;;;12.93;10.65;;;14.30;94.80;;;;;;6208351;28;20102;-79
2023/06/18 01:41:24;;;;;;;11.98;10.18;;;14.40;95.00;;;;;;6206210;28;20050;-81
2023/06/18 01:44:29;;;;;;;11.80;10.73;;;14.30;94.90;;;;;;6211231;28;20054;-80
2023/06/18 01:47:32;;;;;;;11.10;10.10;;;14.30;94.90;;;;;;6208306;28;20133;-80
2023/06/18 01:50:38;;;;;;;13.15;11.88;;;14.30;95.10;;;;;;6210653;28;20121;-80
2023/06/18 01:53:41;;;;;;;10.98;9.98;;;14.30;95.10;;;;;;6212326;28;20460;-82
2023/06/18 01:56:45;;;;;;;11.55;10.35;;;14.30;95.00;;;;;;6205862;28;20051;-82
2023/06/18 01:59:47;;;;;;;13.32;11.65;;;14.20;95.00;;;;;;6207185;28;20045;-84
2023/06/18 02:02:51;;;;;;;10.88;9.88;;;14.10;95.20;;;;;;6209577;28;20058;-85
2023/06/18 02:05:54;;;;;;;11.13;10.07;;;14.10;95.50;;;;;;6205283;28;20053;-82
2023/06/18 02:08:56;;;;;;;11.70;10.55;;;14.10;95.50;;;;;;6208534;28;20046;-82
2023/06/18 02:11:57;;;;;;;13.45;11.00;;;14.10;95.60;;;;;;6207729;28;20050;-82
2023/06/18 02:14:59;;;;;;;10.40;9.48;;;14.10;95.50;;;;;;6208248;28;20053;-82
2023/06/18 02:18:01;;;;;;;12.05;10.85;;;14.10;95.60;;;;;;6208417;28;20053;-81
2023/06/18 02:21:04;;;;;;;13.75;10.73;;;14.20;95.70;;;;;;6208583;28;20065;-82
2023/06/18 02:24:05;;;;;;;11.32;10.27;;;14.20;95.60;;;;;;6208973;28;20046;-81
2023/06/18 02:27:07;;;;;;;12.45;11.25;;;14.20;95.50;;;;;;6207852;28;20513;-81
2023/06/18 02:30:09;;;;;;;11.40;10.23;;;14.20;95.40;;;;;;6208159;28;20046;-81
2023/06/18 02:33:11;;;;;;;11.20;10.07;;;14.10;95.50;;;;;;6208615;28;20054;-82
2023/06/18 02:36:17;;;;;;;12.18;11.07;;;14.00;95.60;;;;;;6208497;28;20509;-82
2023/06/18 02:39:19;;;;;;;12.50;10.88;;;13.80;95.70;;;;;;6207208;28;20046;-82
2023/06/18 02:42:22;;;;;;;10.30;9.40;;;13.80;95.90;;;;;;6206825;28;20046;-80
2023/06/18 02:45:25;;;;;;;13.65;10.07;;;13.90;95.80;;;;;;6206254;28;20042;-82
2023/06/18 02:48:27;;;;;;;10.07;9.15;;;13.90;95.70;;;;;;6205789;28;20113;-81
2023/06/18 02:51:30;;;;;;;12.80;10.68;;;13.80;95.60;;;;;;6206758;28;20056;-81
2023/06/18 02:54:32;;;;;;;13.57;10.32;;;13.70;95.80;;;;;;6206285;28;20053;-82
2023/06/18 02:57:33;;;;;;;11.43;10.00;;;13.80;96.00;;;;;;6205751;28;20053;-82
2023/06/18 03:00:35;;;;;;;10.75;9.65;;;13.80;95.90;;;;;;6205615;28;20042;-82
2023/06/18 03:03:37;;;;;;;12.52;11.30;;;13.80;95.70;;;;;;6205531;28;20053;-82
2023/06/18 03:06:40;;;;;;;11.60;10.50;;;13.70;95.70;;;;;;6206546;28;20051;-81
2023/06/18 03:09:42;;;;;;;11.93;10.68;;;13.60;95.80;;;;;;6205173;28;20157;-81
2023/06/18 03:12:44;;;;;;;14.00;10.32;;;13.70;96.00;;;;;;6205600;28;20141;-82
2023/06/18 03:15:45;;;;;;;10.93;9.82;;;13.70;96.00;;;;;;6205152;28;20050;-82
2023/06/18 03:18:47;;;;;;;10.77;9.82;;;13.70;96.10;;;;;;6204326;28;20046;-82
2023/06/18 03:21:50;;;;;;;11.73;9.70;;;13.70;96.10;;;;;;6205206;28;20046;-81
2023/06/18 03:24:52;;;;;;;11.00;10.00;;;13.70;96.10;;;;;;6204422;28;20054;-81
2023/06/18 03:27:53;;;;;;;11.88;10.75;;;13.70;96.10;;;;;;6197885;28;20057;-81
2023/06/18 03:30:55;;;;;;;10.10;9.30;;;13.70;96.10;;;;;;6198948;28;20052;-79
2023/06/18 03:34:01;;;;;;;13.88;11.75;;;13.70;96.10;;;;;;6199221;28;20050;-79
2023/06/18 03:37:04;;;;;;;10.98;9.90;;;13.70;96.10;;;;;;6175294;28;20051;-79
2023/06/18 03:40:08;;;;;;;11.45;10.35;;;13.60;96.20;;;;;;6176103;28;20047;-80
2023/06/18 03:43:10;;;;;;;10.18;9.23;;;13.60;96.40;;;;;;6176049;28;20051;-80
2023/06/18 03:46:11;;;;;;;11.32;10.30;;;13.60;96.40;;;;;;6178610;28;20058;-81
2023/06/18 03:49:13;;;;;;;10.38;9.48;;;13.60;96.40;;;;;;6177385;28;20400;-81
2023/06/18 03:52:16;;;;;;;11.85;10.68;;;13.50;96.50;;;;;;6176341;28;20055;-80
2023/06/18 03:55:18;;;;;;;12.40;10.55;;;13.60;96.60;;;;;;6175417;28;20544;-80
2023/06/18 03:58:19;;;;;;;11.48;10.45;;;13.70;96.60;;;;;;6175292;28;20520;-81
2023/06/18 04:01:21;;;;;;;11.25;10.35;;;13.80;96.60;;;;;;6175499;28;20043;-80
2023/06/18 04:04:23;;;;;;;9.90;9.00;;;14.00;96.70;;;;;;6175938;28;20066;-81
2023/06/18 04:07:26;;;;;;;11.20;9.98;;;14.20;96.50;;;;;;6181524;28;20065;-81
2023/06/18 04:10:28;;;;;;;10.50;9.60;;;14.50;96.40;;;;;;6199270;28;20057;-82
2023/06/18 04:13:30;;;;;;;10.82;9.82;;;14.60;96.10;;;;;;6200151;28;20053;-81
2023/06/18 04:16:32;;;;;;;10.70;9.38;;;14.70;96.30;;;;;;6200594;28;20054;-80
2023/06/18 04:19:34;;;;;;;13.38;12.00;;;15.10;96.30;;;;;;6198769;28;20038;-82
2023/06/18 04:22:37;;;;;;;11.13;10.13;;;15.40;96.00;;;;;;6198523;28;20072;-81
2023/06/18 04:25:39;;;;;;;9.32;8.60;;;15.80;95.30;;;;;;6200021;28;20042;-82
2023/06/18 04:28:40;;;;;;;9.93;8.93;;;16.10;94.60;;;;;;6199130;28;20512;-80
2023/06/18 04:31:42;;;;;;;11.20;10.13;;;16.20;94.10;;;;;;6199143;28;20425;-81
2023/06/18 04:34:44;;;;;;;11.85;10.23;;;16.20;94.10;;;;;;6199719;28;20057;-80
2023/06/18 04:37:47;;;;;;;11.00;9.15;;;16.50;94.00;;;;;;6200384;28;20469;-80
2023/06/18 04:40:49;;;;;;;9.68;8.75;;;16.70;93.40;;;;;;6200720;28;20045;-80
2023/06/18 04:43:51;;;;;;;11.20;9.98;;;16.80;93.00;;;;;;6200338;28;20069;-82
2023/06/18 04:46:53;;;;;;;9.55;8.75;;;16.80;92.80;;;;;;6200026;28;20198;-82
2023/06/18 04:49:54;;;;;;;10.05;9.18;;;16.90;92.60;;;;;;6199598;28;20050;-81
2023/06/18 04:52:58;;;;;;;9.88;8.98;;;17.00;92.40;;;;;;6200540;28;20058;-82
2023/06/18 04:56:00;;;;;;;9.95;9.05;;;17.20;92.10;;;;;;6200664;28;20051;-81
2023/06/18 04:59:02;;;;;;;9.13;8.32;;;17.30;91.80;;;;;;6199101;28;20428;-80
2023/06/18 05:02:04;;;;;;;8.75;7.95;;;17.50;91.60;;;;;;6200949;28;20050;-83
2023/06/18 05:05:06;;;;;;;10.10;9.18;;;17.70;91.20;;;;;;6200256;28;20058;-82
2023/06/18 05:08:09;;;;;;;9.23;8.25;;;17.90;90.70;;;;;;6200699;28;20051;-83
2023/06/18 05:11:11;;;;;;;10.05;8.90;;;18.10;90.20;;;;;;6203428;28;20042;-83
2023/06/18 05:14:13;;;;;;;9.85;7.82;;;18.30;90.10;;;;;;6205242;28;20061;-83
2023/06/18 05:17:14;;;;;;;10.00;7.82;;;18.90;89.10;;;;;;6204862;28;20050;-83
2023/06/18 05:20:16;;;;;;;8.43;7.72;;;19.60;87.30;;;;;;6205912;28;20054;-82
2023/06/18 05:23:19;;;;;;;9.02;8.20;;;20.40;85.40;;;;;;6205582;28;20046;-81
2023/06/18 05:26:21;;;;;;;8.35;7.55;;;21.40;82.70;;;;;;6204906;28;20100;-84
2023/06/18 05:29:23;;;;;;;8.15;7.45;;;22.40;79.20;;;;;;6205777;28;20105;-82
2023/06/18 05:32:25;;;;;;;7.90;7.20;;;23.40;75.50;;;;;;6206256;28;20057;-83
2023/06/18 05:35:26;;;;;;;10.35;7.43;;;24.40;71.20;;;;;;6206222;28;20051;-81
2023/06/18 05:38:29;;;;;;;9.00;8.18;;;25.30;67.10;;;;;;6205223;28;20050;-85
2023/06/18 05:41:31;;;;;;;12.18;8.23;;;26.00;64.10;;;;;;6204154;28;20591;-84
2023/06/18 05:44:33;;;;;;;10.93;9.90;;;26.70;62.00;;;;;;6205201;28;20062;-82
2023/06/18 05:47:34;;;;;;;9.27;8.02;;;27.20;59.90;;;;;;6204758;28;20050;-81
2023/06/18 05:50:36;;;;;;;9.80;8.55;;;27.40;58.80;;;;;;6205596;28;20053;-82
2023/06/18 05:53:39;;;;;;;10.50;9.55;;;28.00;57.60;;;;;;6169647;28;20058;-82
2023/06/18 05:56:41;;;;;;;9.60;8.80;;;28.50;55.90;;;;;;6216022;28;20486;-80
2023/06/18 05:59:43;;;;;;;10.20;9.30;;;28.80;55.00;;;;;;6200801;28;20046;-82
2023/06/18 06:02:46;;;;;;;9.68;8.73;;;29.00;53.90;;;;;;6205664;28;20042;-77
2023/06/18 06:05:48;;;;;;;9.45;8.55;;;28.80;52.90;;;;;;6205340;28;20058;-80
2023/06/18 06:08:52;;;;;;;10.00;8.82;;;28.10;53.40;;;;;;6198308;28;20049;-81
2023/06/18 06:11:53;;;;;;;9.40;8.50;;;27.40;54.10;;;;;;6197277;28;20058;-85
2023/06/18 06:14:55;;;;;;;9.50;8.60;;;26.80;55.00;;;;;;6204379;28;20473;-83
2023/06/18 06:17:57;;;;;;;10.98;9.88;;;26.10;55.20;;;;;;6206826;28;20417;-84
2023/06/18 06:20:59;;;;;;;10.70;9.80;;;25.60;55.60;;;;;;6203201;28;20054;-82
2023/06/18 06:24:02;;;;;;;10.00;9.05;;;25.20;56.50;;;;;;6208810;28;20533;-78
2023/06/18 06:27:04;;;;;;;10.63;9.50;;;24.80;57.10;;;;;;6204394;28;20165;-80
2023/06/18 06:30:08;;;;;;;11.40;10.40;;;24.70;58.50;;;;;;6207991;28;20046;-83
2023/06/18 06:33:09;;;;;;;12.40;8.93;;;24.50;58.50;;;;;;6205959;28;20054;-82
2023/06/18 06:36:12;;;;;;;11.95;9.63;;;24.40;59.10;;;;;;6212691;28;20042;-82
2023/06/18 06:39:16;;;;;;;9.63;8.65;;;24.30;59.70;;;;;;6200779;28;20074;-81
2023/06/18 06:42:18;;;;;;;10.35;9.52;;;24.40;59.90;;;;;;6207129;28;20049;-80
2023/06/18 06:45:19;;;;;;;10.20;9.25;;;24.50;59.60;;;;;;6205329;28;20053;-82
2023/06/18 06:48:21;;;;;;;9.75;8.85;;;24.60;59.60;;;;;;6205052;28;20049;-79
2023/06/18 06:51:23;;;;;;;10.52;9.60;;;24.60;59.00;;;;;;6195210;28;20047;-82
2023/06/18 06:54:26;;;;;;;9.98;9.02;;;24.70;59.00;;;;;;6194622;28;20058;-80
2023/06/18 06:57:27;;;;;;;9.35;8.35;;;24.70;59.00;;;;;;6184988;28;20047;-82
2023/06/18 07:00:29;;;;;;;9.65;8.70;;;24.70;58.70;;;;;;6194632;28;20438;-84
2023/06/18 07:03:31;;;;;;;13.82;9.68;;;24.80;58.60;;;;;;6187825;28;20050;-83
2023/06/18 07:06:33;;;;;;;10.05;9.13;;;24.90;58.50;;;;;;6199521;28;20058;-82
2023/06/18 07:09:36;;;;;;;10.25;9.23;;;25.10;58.30;;;;;;6203700;28;20046;-82
2023/06/18 07:12:37;;;;;;;12.07;9.25;;;25.20;58.20;;;;;;6197331;28;20050;-85
2023/06/18 07:15:39;;;;;;;11.13;9.95;;;25.30;57.90;;;;;;6208016;28;20038;-82
2023/06/18 07:18:41;;;;;;;11.15;8.48;;;25.40;58.00;;;;;;6202096;28;20053;-81
2023/06/18 07:21:42;;;;;;;9.93;9.02;;;25.60;58.10;;;;;;6197333;28;20059;-81
2023/06/18 07:24:45;;;;;;;10.57;9.57;;;25.80;57.70;;;;;;6195017;28;20061;-80
2023/06/18 07:27:47;;;;;;;11.27;10.18;;;25.90;57.30;;;;;;6194879;28;20042;-79
2023/06/18 07:30:49;;;;;;;12.13;10.60;;;26.10;57.20;;;;;;6192361;28;20785;-78
2023/06/18 07:33:50;;;;;;;13.57;9.43;;;26.40;56.80;;;;;;6195943;28;20073;-78
2023/06/18 07:36:52;;;;;;;10.45;9.45;;;26.60;56.30;;;;;;6196440;28;20149;-79
2023/06/18 07:39:55;;;;;;;13.57;9.40;;;26.80;56.70;;;;;;6196727;28;20054;-79
2023/06/18 07:42:57;;;;;;;10.95;9.65;;;27.00;55.70;;;;;;6191778;28;20050;-78
2023/06/18 07:45:59;;;;;;;11.02;9.98;;;27.20;55.10;;;;;;6188193;28;20061;-80
2023/06/18 07:49:00;;;;;;;11.55;10.50;;;27.40;54.30;;;;;;6182331;28;20054;-79
2023/06/18 07:52:02;;;;;;;12.25;9.57;;;27.60;53.80;;;;;;6183700;28;20124;-80
2023/06/18 07:55:06;;;;;;;12.00;9.07;;;27.70;53.30;;;;;;6183232;28;20070;-79
2023/06/18 07:58:08;;;;;;;11.50;8.60;;;27.90;52.70;;;;;;6185951;28;20050;-78
2023/06/18 08:01:10;;;;;;;10.20;9.15;;;28.00;52.20;;;;;;6187304;28;20046;-79
2023/06/18 08:04:11;;;;;;;11.63;10.27;;;28.20;51.60;;;;;;6188055;28;20042;-78
2023/06/18 08:07:13;;;;;;;10.18;9.35;;;28.30;51.20;;;;;;6192638;28;20042;-79
2023/06/18 08:10:16;;;;;;;11.40;8.10;;;28.40;51.00;;;;;;6193233;28;20049;-80
2023/06/18 08:13:18;;;;;;;8.85;7.68;;;28.50;50.30;;;;;;6198382;28;20046;-78
2023/06/18 08:16:20;;;;;;;9.57;8.32;;;28.70;50.10;;;;;;6200236;28;20056;-78
2023/06/18 08:19:21;;;;;;;9.13;8.23;;;29.00;49.60;;;;;;6193459;28;20126;-79
2023/06/18 08:22:23;;;;;;;7.28;6.57;;;29.00;49.40;;;;;;6197384;28;20042;-80
2023/06/18 08:25:26;;;;;;;10.35;9.32;;;29.30;49.30;;;;;;6187864;28;20053;-83
2023/06/18 08:28:28;;;;;;;9.43;8.45;;;29.40;48.80;;;;;;6187456;28;20076;-79
2023/06/18 08:31:30;;;;;;;9.35;8.48;;;29.20;48.50;;;;;;6190884;28;20046;-80
2023/06/18 08:34:32;;;;;;;10.77;9.63;;;29.10;48.60;;;;;;6192650;28;20077;-79
2023/06/18 08:37:33;;;;;;;10.38;9.48;;;29.10;49.20;;;;;;6189940;28;20066;-79
2023/06/18 08:40:46;;;;;;;10.70;9.60;;;29.20;50.00;;;;;;6200019;28;20062;-78
2023/06/18 08:43:48;;;;;;;10.70;9.38;;;29.40;50.30;;;;;;6196726;28;20109;-81
2023/06/18 08:46:52;;;;;;;10.82;9.65;;;29.50;50.10;;;;;;6188276;28;20093;-79
2023/06/18 08:49:59;;;;;;;10.85;9.73;;;29.60;49.90;;;;;;6192645;28;20042;-79
2023/06/18 08:53:05;;;;;;;;;;;29.80;49.60;;;;;;6199190;28;20047;-79
2023/06/18 08:56:09;;;;;;;10.65;9.57;;;30.00;49.50;;;;;;6207543;28;19921;-79
2023/06/18 08:59:12;;;;;;;11.05;9.73;;;30.10;49.30;;;;;;6198101;28;20045;-79
2023/06/18 09:02:15;;;;;;;9.70;8.77;;;30.20;49.10;;;;;;6204903;28;20124;-78
2023/06/18 09:05:18;;;;;;;11.57;9.18;;;30.30;48.60;;;;;;6202405;28;20046;-78
2023/06/18 09:08:20;;;;;;;9.80;8.35;;;30.50;48.50;;;;;;6204956;28;20042;-82
2023/06/18 09:11:25;;;;;;;9.70;8.73;;;30.60;48.30;;;;;;6203750;28;20053;-80
2023/06/18 09:14:27;;;;;;;9.73;8.93;;;30.70;47.80;;;;;;6203869;28;20065;-79
2023/06/18 09:17:29;;;;;;;8.95;8.10;;;30.70;47.80;;;;;;6204178;28;20058;-79
2023/06/18 09:20:34;;;;;;;10.20;9.30;;;31.00;47.40;;;;;;6192703;28;20050;-82
2023/06/18 09:23:36;;;;;;;9.52;8.43;;;31.10;47.00;;;;;;6207173;28;20173;-83
2023/06/18 09:26:39;;;;;;;10.75;8.93;;;31.30;46.90;;;;;;6196727;28;20052;-79
2023/06/18 09:29:42;;;;;;;10.00;9.05;;;31.50;46.50;;;;;;6197155;28;20069;-81
2023/06/18 09:32:46;;;;;;;9.32;8.35;;;31.50;46.30;;;;;;6193848;28;20137;-81
2023/06/18 09:35:58;;;;;;;9.30;8.50;;;31.50;46.20;;;;;;6206259;28;20050;-78
2023/06/18 09:38:59;;;;;;;9.60;8.07;;;31.50;45.90;;;;;;6197331;28;20042;-80
2023/06/18 09:42:07;;;;;;;8.55;7.82;;;31.50;45.80;;;;;;6190341;28;20043;-81
2023/06/18 09:45:11;;;;;;;9.13;8.35;;;31.60;45.30;;;;;;6194163;28;20085;-80
2023/06/18 09:48:12;;;;;;;9.02;8.32;;;31.90;44.50;;;;;;6193663;28;20054;-79
2023/06/18 09:51:15;;;;;;;8.55;7.93;;;32.10;44.20;;;;;;6186349;28;20054;-81
2023/06/18 09:54:17;;;;;;;8.73;7.85;;;32.30;43.50;;;;;;6187941;28;20053;-82
2023/06/18 09:57:20;;;;;;;11.88;8.48;;;32.40;43.20;;;;;;6203066;28;20061;-81
2023/06/18 10:00:22;;;;;;;11.52;9.20;;;32.60;42.80;;;;;;6194286;28;20055;-81
2023/06/18 10:03:24;;;;;;;14.48;7.43;;;32.70;42.50;;;;;;6197375;28;20046;-80
2023/06/18 10:06:26;;;;;;;8.57;7.55;;;32.80;42.10;;;;;;6201293;28;20050;-81
2023/06/18 10:09:32;;;;;;;8.10;7.30;;;32.90;41.90;;;;;;6210660;28;20050;-86
2023/06/18 10:12:36;;;;;;;8.57;7.18;;;33.00;41.40;;;;;;6203680;28;20516;-81
2023/06/18 10:15:40;;;;;;;7.78;6.95;;;33.20;41.20;;;;;;6204282;28;20043;-82
2023/06/18 10:18:56;;;;;;;8.27;7.43;;;33.40;40.40;;;;;;6203955;28;20050;-83
2023/06/18 10:22:00;;;;;;;8.25;7.28;;;33.60;39.90;;;;;;6205512;28;20053;-82
2023/06/18 10:25:05;;;;;;;6.53;6.03;;;33.50;40.00;;;;;;6197089;28;20050;-81
2023/06/18 10:28:09;;;;;;;5.97;5.47;;;33.90;39.70;;;;;;6196159;28;20042;-82
2023/06/18 10:31:11;;;;;;;6.13;5.55;;;34.10;38.40;;;;;;6190144;28;20196;-78
2023/06/18 10:34:14;;;;;;;11.48;8.20;;;34.30;37.80;;;;;;6187527;28;20058;-81
2023/06/18 10:37:27;;;;;;;10.40;7.00;;;34.60;38.40;;;;;;6193218;28;20462;-80
2023/06/18 10:40:29;;;;;;;8.35;6.80;;;34.80;38.60;;;;;;6197770;28;20050;-81
2023/06/18 10:43:32;;;;;;;7.47;6.72;;;35.00;38.60;;;;;;6193369;28;20057;-80
2023/06/18 10:46:34;;;;;;;7.20;6.07;;;35.10;38.20;;;;;;6197351;28;20054;-80
2023/06/18 10:49:35;;;;;;;6.07;5.50;;;35.10;37.20;;;;;;6193211;28;20054;-84
2023/06/18 10:52:38;;;;;;;7.25;5.25;;;34.90;35.50;;;;;;6197326;28;20058;-79
2023/06/18 10:55:40;;;;;;;5.50;5.10;;;34.90;35.30;;;;;;6198380;28;20042;-81
2023/06/18 10:58:55;;;;;;;8.85;5.25;;;34.90;34.90;;;;;;6199166;28;20046;-81
2023/06/18 11:02:00;;;;;;;5.75;5.25;;;35.00;34.80;;;;;;6194176;28;20049;-81
2023/06/18 11:05:02;;;;;;;5.65;5.15;;;35.30;34.50;;;;;;6192703;28;20065;-82
2023/06/18 11:08:06;;;;;;;5.78;5.28;;;35.70;34.10;;;;;;6198074;28;20061;-78
2023/06/18 11:11:10;;;;;;;6.30;5.50;;;36.00;33.80;;;;;;6201340;28;20038;-78
2023/06/18 11:14:20;;;;;;;6.35;5.68;;;36.10;33.50;;;;;;6192589;28;20046;-81
2023/06/18 11:17:24;;;;;;;6.68;5.78;;;36.30;33.20;;;;;;6190619;28;20433;-81
2023/06/18 11:20:28;;;;;;;6.35;5.07;;;36.50;32.70;;;;;;6194696;28;20124;-81
2023/06/18 11:23:31;;;;;;;5.65;5.15;;;36.40;32.40;;;;;;6191658;28;20066;-86
2023/06/18 11:26:33;;;;;;;5.88;5.38;;;36.10;33.00;;;;;;6194114;28;20050;-80
2023/06/18 11:29:38;;;;;;;6.18;5.72;;;36.40;33.50;;;;;;6200632;28;20046;-80
2023/06/18 11:32:40;;;;;;;6.43;5.53;;;36.80;33.40;;;;;;6195558;28;20050;-80
2023/06/18 11:35:42;;;;;;;7.07;6.00;;;37.20;33.20;;;;;;6193919;28;20054;-80
2023/06/18 11:38:43;;;;;;;6.03;5.43;;;37.60;32.60;;;;;;6203720;28;20114;-79
2023/06/18 11:41:45;;;;;;;5.60;5.10;;;37.60;32.00;;;;;;6196398;28;20054;-80
2023/06/18 11:44:50;;;;;;;6.13;5.18;;;37.60;32.50;;;;;;6199300;28;20066;-79
2023/06/18 11:47:53;;;;;;;4.85;4.53;;;37.70;32.10;;;;;;6206732;28;20133;-79
2023/06/18 11:50:55;;;;;;;8.50;4.82;;;37.80;31.70;;;;;;6206143;28;20049;-78
2023/06/18 11:53:57;;;;;;;5.95;5.18;;;37.70;31.30;;;;;;6206303;28;20046;-80
2023/06/18 11:56:59;;;;;;;5.10;4.53;;;37.60;31.40;;;;;;6203960;28;20057;-78
2023/06/18 12:00:07;;;;;;;5.90;4.35;;;37.40;31.50;;;;;;6212154;28;20061;-79
2023/06/18 12:03:10;;;;;;;5.90;4.63;;;37.70;31.50;;;;;;6210147;28;20053;-80
2023/06/18 12:06:13;;;;;;;6.20;5.60;;;38.10;31.60;;;;;;6204980;28;20061;-78
2023/06/18 12:09:15;;;;;;;8.45;4.53;;;38.60;31.40;;;;;;6194809;28;20083;-80
2023/06/18 12:12:25;;;;;;;5.55;5.05;;;39.00;30.80;;;;;;6201521;28;20126;-83
2023/06/18 12:15:33;;;;;;;5.35;4.85;;;38.80;30.50;;;;;;6188323;28;20058;-81
2023/06/18 12:18:38;;;;;;;5.82;4.95;;;38.50;30.60;;;;;;6181996;28;20046;-82
2023/06/18 12:21:40;;;;;;;5.03;4.63;;;38.00;30.80;;;;;;6187141;28;20074;-80
2023/06/18 12:24:43;;;;;;;5.53;4.97;;;37.60;31.00;;;;;;6188677;28;20080;-79
2023/06/18 12:27:45;;;;;;;6.95;4.72;;;37.10;31.30;;;;;;6201045;28;20521;-81
2023/06/18 12:30:48;;;;;;;5.90;5.38;;;36.40;31.80;;;;;;6199402;28;20042;-85
2023/06/18 12:33:49;;;;;;;5.88;5.22;;;35.90;32.10;;;;;;6200160;28;20050;-80
2023/06/18 12:36:56;;;;;;;5.97;5.47;;;35.60;32.60;;;;;;6193111;28;20054;-80
2023/06/18 12:40:14;;;;;;;6.60;5.07;;;35.80;32.70;;;;;;6203223;28;20046;-81
2023/06/18 12:43:17;;;;;;;6.53;5.93;;;36.40;32.80;;;;;;6197013;28;20046;-79
2023/06/18 12:46:27;;;;;;;9.10;6.05;;;36.80;32.30;;;;;;6184484;28;20140;-81
2023/06/18 12:49:38;;;;;;;8.35;5.03;;;36.70;32.30;;;;;;6190399;28;20046;-77
2023/06/18 12:52:41;;;;;;;7.82;5.60;;;36.60;32.00;;;;;;6196290;28;20248;-77
2023/06/18 12:55:43;;;;;;;7.28;6.57;;;36.80;32.10;;;;;;6190957;28;20517;-79
2023/06/18 12:58:46;;;;;;;5.63;5.07;;;37.20;32.00;;;;;;6193062;28;20053;-78
2023/06/18 13:01:51;;;;;;;5.07;4.63;;;37.10;32.00;;;;;;6204464;28;20575;-80
2023/06/18 13:04:53;;;;;;;5.60;5.20;;;37.20;32.00;;;;;;6198918;28;20061;-79
2023/06/18 13:07:56;;;;;;;6.40;5.85;;;37.20;31.80;;;;;;6194099;28;20050;-78
2023/06/18 13:10:57;;;;;;;7.68;6.00;;;37.10;31.70;;;;;;6192147;28;20125;-80
2023/06/18 13:14:00;;;;;;;6.45;5.85;;;36.80;31.60;;;;;;6193892;28;20449;-79
2023/06/18 13:17:03;;;;;;;6.38;5.78;;;36.70;31.80;;;;;;6195548;28;20110;-82
2023/06/18 13:20:08;;;;;;;7.28;5.55;;;37.00;31.60;;;;;;6202141;28;20078;-82
2023/06/18 13:23:10;;;;;;;7.55;5.47;;;36.70;31.40;;;;;;6203116;28;20066;-79
2023/06/18 13:26:12;;;;;;;6.45;5.85;;;36.50;31.40;;;;;;6206171;28;20046;-81
2023/06/18 13:29:14;;;;;;;6.38;4.93;;;36.30;32.10;;;;;;6206452;28;20061;-77
2023/06/18 13:32:17;;;;;;;6.00;4.85;;;36.70;32.00;;;;;;6213691;28;20038;-83
2023/06/18 13:35:19;;;;;;;5.38;4.97;;;37.10;31.70;;;;;;6206380;28;20045;-79
2023/06/18 13:38:20;;;;;;;5.72;5.22;;;37.40;31.90;;;;;;6207433;28;20057;-80
2023/06/18 13:41:22;;;;;;;6.75;5.47;;;37.50;31.50;;;;;;6211478;28;20057;-81
2023/06/18 13:44:24;;;;;;;5.75;5.22;;;37.50;31.50;;;;;;6210579;28;20054;-81
2023/06/18 13:47:27;;;;;;;5.95;5.45;;;37.20;31.50;;;;;;6210191;28;20057;-80
2023/06/18 13:50:29;;;;;;;6.50;5.97;;;36.80;31.50;;;;;;6201187;28;20533;-83
2023/06/18 13:53:31;;;;;;;6.88;6.28;;;36.30;32.10;;;;;;6194756;28;20393;-81
2023/06/18 13:56:32;;;;;;;6.32;5.70;;;36.40;32.20;;;;;;6190945;28;20050;-80
2023/06/18 13:59:34;;;;;;;5.97;5.47;;;36.60;32.10;;;;;;6195006;28;20058;-80
2023/06/18 14:02:37;;;;;;;5.63;5.10;;;37.10;31.70;;;;;;6199467;28;20050;-80
2023/06/18 14:05:39;;;;;;;9.25;6.03;;;37.30;31.60;;;;;;6193746;28;20050;-81
2023/06/18 14:08:41;;;;;;;6.72;5.47;;;37.80;31.50;;;;;;6195660;28;20054;-79
2023/06/18 14:11:43;;;;;;;5.25;4.75;;;37.80;31.00;;;;;;6194703;28;20441;-83
2023/06/18 14:14:45;;;;;;;8.10;5.88;;;37.60;31.30;;;;;;6197148;28;20038;-81
2023/06/18 14:17:48;;;;;;;5.70;5.10;;;37.70;31.20;;;;;;6196594;28;20039;-81
2023/06/18 14:20:50;;;;;;;6.95;5.30;;;37.50;31.10;;;;;;6197989;28;20050;-82
2023/06/18 14:23:53;;;;;;;5.65;5.18;;;37.30;31.50;;;;;;6198222;28;20057;-81
2023/06/18 14:26:54;;;;;;;12.48;7.50;;;36.90;31.10;;;;;;6202060;28;20052;-83
2023/06/18 14:29:56;;;;;;;5.82;5.32;;;36.60;31.50;;;;;;6202696;28;20600;-79
2023/06/18 14:32:59;;;;;;;6.38;5.40;;;36.50;31.50;;;;;;6196609;28;20476;-81
2023/06/18 14:36:01;;;;;;;6.15;5.50;;;36.50;31.30;;;;;;6197578;28;20050;-79
2023/06/18 14:39:05;;;;;;;6.70;5.90;;;36.30;31.70;;;;;;6207299;28;20149;-81
2023/06/18 14:42:07;;;;;;;9.18;5.35;;;36.40;31.80;;;;;;6191839;28;20054;-79
2023/06/18 14:45:10;;;;;;;6.75;6.15;;;36.50;31.50;;;;;;6200520;28;20054;-81
2023/06/18 14:48:13;;;;;;;6.82;5.68;;;36.80;31.50;;;;;;6195685;28;20052;-80
2023/06/18 14:51:15;;;;;;;8.90;6.43;;;36.90;31.40;;;;;;6202880;28;20053;-81
2023/06/18 14:54:17;;;;;;;5.88;5.38;;;37.20;31.80;;;;;;6207981;28;20287;-82
2023/06/18 14:57:19;;;;;;;6.97;6.32;;;37.20;31.80;;;;;;6209810;28;21219;-80
2023/06/18 15:00:21;;;;;;;12.10;7.38;;;37.30;31.90;;;;;;6206044;28;20197;-82
2023/06/18 15:03:24;;;;;;;6.03;5.43;;;37.50;31.40;;;;;;6203543;28;20140;-77
2023/06/18 15:06:25;;;;;;;9.60;5.50;;;37.40;31.20;;;;;;6209060;28;20049;-80
2023/06/18 15:09:27;;;;;;;7.13;6.18;;;37.50;31.30;;;;;;6203329;28;20048;-80
2023/06/18 15:12:29;;;;;;;5.65;5.07;;;37.70;31.50;;;;;;6212964;28;20046;-79
2023/06/18 15:15:31;;;;;;;6.18;5.55;;;37.80;31.60;;;;;;6211884;28;20062;-81
2023/06/18 15:18:34;;;;;;;6.72;6.13;;;37.70;31.70;;;;;;6202863;28;20069;-79
2023/06/18 15:21:35;;;;;;;6.47;5.88;;;37.90;31.60;;;;;;6206804;28;20045;-80
2023/06/18 15:24:37;;;;;;;6.00;5.47;;;37.80;31.50;;;;;;6212866;28;20042;-78
2023/06/18 15:27:39;;;;;;;6.10;5.60;;;37.70;31.20;;;;;;6213282;28;20481;-80
2023/06/18 15:30:41;;;;;;;7.20;5.72;;;37.50;30.90;;;;;;6212604;28;20105;-80
2023/06/18 15:33:44;;;;;;;6.90;5.40;;;37.40;31.20;;;;;;6208736;28;20049;-81
2023/06/18 15:36:45;;;;;;;8.95;6.65;;;37.50;31.20;;;;;;6215888;28;20060;-78
2023/06/18 15:39:47;;;;;;;6.30;5.80;;;37.70;31.00;;;;;;6199510;28;20053;-78
2023/06/18 15:42:49;;;;;;;7.72;5.90;;;37.70;30.70;;;;;;6213374;28;20056;-82